Time,TemperatureF,DewpointF,PressureIn,WindDirection,WindDirectionDegrees,WindSpeedMPH,WindSpeedGustMPH,Humidity,HourlyPrecipIn,Conditions,Clouds,dailyrainin,SolarRadiationWatts/m^2,SoftwareType,DateUTC
2013-09-13 00:01:00,64.7,64.7,29.64,SSW,211,1.0,1.0,100,0.00,,,0.01,0,Wunderground v.1.15,2013-09-13 04:01:00,
2013-09-13 00:02:00,64.7,64.7,29.64,SSW,211,1.0,1.0,100,0.00,,,0.01,0,Wunderground v.1.15,2013-09-13 04:02:00,
2013-09-13 00:03:00,64.7,64.7,29.64,SSW,211,1.0,1.0,100,0.00,,,0.01,0,Wunderground v.1.15,2013-09-13 04:03:00,
2013-09-13 00:04:00,64.7,64.7,29.64,SSW,211,1.0,1.0,100,0.22,,,0.02,0,Wunderground v.1.15,2013-09-13 04:04:00,
2013-09-13 00:09:00,64.7,64.4,29.64,SSW,211,0.0,1.0,99,0.10,,,0.02,0,Wunderground v.1.15,2013-09-13 04:09:00,
2013-09-13 00:13:00,64.7,64.7,29.64,SSW,211,0.0,0.0,100,0.06,,,0.02,0,Wunderground v.1.15,2013-09-13 04:13:00,
2013-09-13 00:18:00,64.7,64.4,29.64,SSW,211,0.0,0.0,99,0.04,,,0.02,0,Wunderground v.1.15,2013-09-13 04:18:00,
2013-09-13 00:23:00,64.6,64.6,29.64,South,174,0.0,1.0,100,0.00,,,0.02,0,Wunderground v.1.15,2013-09-13 04:23:00,
2013-09-13 00:29:00,64.6,64.6,29.64,SSW,196,1.0,3.0,100,0.00,,,0.02,0,Wunderground v.1.15,2013-09-13 04:29:00,
2013-09-13 00:34:00,64.6,64.6,29.64,South,185,1.0,2.0,100,0.00,,,0.02,0,Wunderground v.1.15,2013-09-13 04:34:00,
2013-09-13 00:39:00,64.5,64.5,29.64,South,189,1.0,2.0,100,0.00,,,0.02,0,Wunderground v.1.15,2013-09-13 04:39:00,
2013-09-13 00:45:00,64.5,64.5,29.65,South,189,0.0,1.0,100,0.00,,,0.02,0,Wunderground v.1.15,2013-09-13 04:45:00,
2013-09-13 00:50:00,64.5,64.5,29.65,SW,217,0.0,2.0,100,0.00,,,0.02,0,Wunderground v.1.15,2013-09-13 04:50:00,
2013-09-13 00:56:00,64.5,64.5,29.66,SSW,212,1.0,4.0,100,0.00,,,0.02,0,Wunderground v.1.15,2013-09-13 04:56:00,
2013-09-13 01:02:00,64.5,64.5,29.65,SW,215,1.0,1.0,100,0.00,,,0.03,0,Wunderground v.1.15,2013-09-13 05:02:00,
2013-09-13 01:08:00,64.5,64.5,29.64,SE,133,1.0,3.0,100,0.23,,,0.05,0,Wunderground v.1.15,2013-09-13 05:08:00,
2013-09-13 01:14:00,64.5,64.5,29.64,SE,134,0.0,1.0,100,0.09,,,0.06,0,Wunderground v.1.15,2013-09-13 05:14:00,
2013-09-13 01:19:00,64.6,64.6,29.65,South,186,0.0,1.0,100,0.12,,,0.07,0,Wunderground v.1.15,2013-09-13 05:19:00,
2013-09-13 01:24:00,64.6,64.6,29.64,South,186,0.0,0.0,100,0.11,,,0.07,0,Wunderground v.1.15,2013-09-13 05:24:00,
2013-09-13 01:29:00,64.6,64.6,29.64,South,186,0.0,0.0,100,0.07,,,0.08,0,Wunderground v.1.15,2013-09-13 05:29:00,
2013-09-13 01:34:00,64.6,64.6,29.62,ENE,70,0.0,0.0,100,0.10,,,0.09,0,Wunderground v.1.15,2013-09-13 05:34:00,
2013-09-13 01:40:00,64.6,64.6,29.62,ENE,64,0.0,0.0,100,0.08,,,0.09,0,Wunderground v.1.15,2013-09-13 05:40:00,
2013-09-13 01:45:00,64.6,64.6,29.62,ENE,64,0.0,0.0,100,0.06,,,0.10,0,Wunderground v.1.15,2013-09-13 05:45:00,
2013-09-13 01:51:00,64.6,64.6,29.62,ENE,64,0.0,0.0,100,0.07,,,0.11,0,Wunderground v.1.15,2013-09-13 05:51:00,
2013-09-13 01:57:00,64.6,64.6,29.62,ENE,66,0.0,1.0,100,0.07,,,0.11,0,Wunderground v.1.15,2013-09-13 05:57:00,
2013-09-13 02:03:00,64.6,64.6,29.62,SSE,157,1.0,1.0,100,0.05,,,0.11,0,Wunderground v.1.15,2013-09-13 06:03:00,
2013-09-13 02:09:00,64.7,64.7,29.60,SSE,157,0.0,1.0,100,0.00,,,0.11,0,Wunderground v.1.15,2013-09-13 06:09:00,
2013-09-13 02:15:00,64.7,64.7,29.59,SSE,157,0.0,0.0,100,0.00,,,0.11,0,Wunderground v.1.15,2013-09-13 06:15:00,
2013-09-13 02:21:00,64.7,64.7,29.60,SSE,157,0.0,0.0,100,0.00,,,0.11,0,Wunderground v.1.15,2013-09-13 06:21:00,
2013-09-13 02:27:00,64.7,64.7,29.60,SSE,157,0.0,0.0,100,0.00,,,0.11,0,Wunderground v.1.15,2013-09-13 06:27:00,
2013-09-13 02:32:00,64.7,64.7,29.59,SSE,157,0.0,0.0,100,0.00,,,0.11,0,Wunderground v.1.15,2013-09-13 06:32:00,
2013-09-13 02:38:00,64.8,64.8,29.59,SSE,157,0.0,0.0,100,0.00,,,0.11,0,Wunderground v.1.15,2013-09-13 06:38:00,
2013-09-13 02:43:00,64.7,64.7,29.58,SSE,157,0.0,0.0,100,0.00,,,0.11,0,Wunderground v.1.15,2013-09-13 06:43:00,
2013-09-13 02:49:00,64.6,64.6,29.58,ESE,104,0.0,0.0,100,0.00,,,0.11,0,Wunderground v.1.15,2013-09-13 06:49:00,
2013-09-13 02:55:00,64.5,64.5,29.58,ESE,104,0.0,0.0,100,0.00,,,0.11,0,Wunderground v.1.15,2013-09-13 06:55:00,
2013-09-13 03:00:00,64.4,64.4,29.57,ESE,104,0.0,0.0,100,0.00,,,0.11,0,Wunderground v.1.15,2013-09-13 07:00:00,
2013-09-13 03:06:00,64.3,64.3,29.57,ESE,104,0.0,0.0,100,0.00,,,0.11,0,Wunderground v.1.15,2013-09-13 07:06:00,
2013-09-13 03:11:00,64.3,64.3,29.57,ESE,104,0.0,0.0,100,0.00,,,0.11,0,Wunderground v.1.15,2013-09-13 07:11:00,
2013-09-13 03:17:00,64.2,64.2,29.58,ESE,104,0.0,0.0,100,0.00,,,0.11,0,Wunderground v.1.15,2013-09-13 07:17:00,
2013-09-13 03:22:00,64.2,64.2,29.59,SE,137,0.0,0.0,100,0.00,,,0.11,0,Wunderground v.1.15,2013-09-13 07:22:00,
2013-09-13 03:27:00,64.2,64.2,29.59,SE,137,0.0,1.0,100,0.00,,,0.11,0,Wunderground v.1.15,2013-09-13 07:27:00,
2013-09-13 03:33:00,64.3,64.3,29.60,SW,221,0.0,2.0,100,0.00,,,0.11,0,Wunderground v.1.15,2013-09-13 07:33:00,
2013-09-13 03:38:00,64.3,64.3,29.61,South,191,1.0,2.0,100,0.00,,,0.11,0,Wunderground v.1.15,2013-09-13 07:38:00,
2013-09-13 03:44:00,64.3,64.3,29.61,South,186,1.0,4.0,100,0.00,,,0.11,0,Wunderground v.1.15,2013-09-13 07:44:00,
2013-09-13 03:49:00,64.2,64.2,29.61,SSW,204,1.0,4.0,100,0.00,,,0.11,0,Wunderground v.1.15,2013-09-13 07:49:00,
2013-09-13 03:55:00,64.2,64.2,29.61,SSW,192,1.0,3.0,100,0.00,,,0.11,0,Wunderground v.1.15,2013-09-13 07:55:00,
2013-09-13 04:01:00,64.1,64.1,29.61,SSW,202,1.0,1.0,100,0.00,,,0.11,0,Wunderground v.1.15,2013-09-13 08:01:00,
2013-09-13 04:06:00,64.1,64.1,29.62,SW,234,1.0,1.0,100,0.00,,,0.11,0,Wunderground v.1.15,2013-09-13 08:06:00,
2013-09-13 04:11:00,64.1,64.1,29.62,SSE,160,1.0,2.0,100,0.00,,,0.11,0,Wunderground v.1.15,2013-09-13 08:11:00,
2013-09-13 04:16:00,64.1,64.1,29.61,SSE,153,1.0,2.0,100,0.00,,,0.11,0,Wunderground v.1.15,2013-09-13 08:16:00,
2013-09-13 04:21:00,64.1,64.1,29.61,South,173,1.0,1.0,100,0.00,,,0.11,0,Wunderground v.1.15,2013-09-13 08:21:00,
2013-09-13 04:26:00,64.1,64.1,29.61,SSE,163,1.0,2.0,100,0.00,,,0.11,0,Wunderground v.1.15,2013-09-13 08:26:00,
2013-09-13 04:31:00,64.1,64.1,29.61,SSE,164,1.0,2.0,100,0.00,,,0.11,0,Wunderground v.1.15,2013-09-13 08:31:00,
2013-09-13 04:36:00,64.2,64.2,29.61,South,170,1.0,3.0,100,0.00,,,0.11,0,Wunderground v.1.15,2013-09-13 08:36:00,
2013-09-13 04:41:00,64.2,64.2,29.60,SSE,149,2.0,2.0,100,0.00,,,0.11,0,Wunderground v.1.15,2013-09-13 08:41:00,
2013-09-13 04:47:00,64.1,64.1,29.60,SSE,158,1.0,2.0,100,0.00,,,0.11,0,Wunderground v.1.15,2013-09-13 08:47:00,
2013-09-13 04:53:00,64.0,64.0,29.60,South,184,1.0,1.0,100,0.00,,,0.11,0,Wunderground v.1.15,2013-09-13 08:53:00,
2013-09-13 04:58:00,64.0,64.0,29.61,SSE,161,1.0,2.0,100,0.00,,,0.11,0,Wunderground v.1.15,2013-09-13 08:58:00,
2013-09-13 05:04:00,63.9,63.9,29.60,SSE,162,0.0,1.0,100,0.00,,,0.11,0,Wunderground v.1.15,2013-09-13 09:04:00,
2013-09-13 05:09:00,63.9,63.9,29.60,SSE,162,0.0,1.0,100,0.00,,,0.11,0,Wunderground v.1.15,2013-09-13 09:09:00,
2013-09-13 05:15:00,63.8,63.8,29.60,SSE,162,0.0,0.0,100,0.00,,,0.12,0,Wunderground v.1.15,2013-09-13 09:15:00,
2013-09-13 05:21:00,63.8,63.8,29.60,SSE,162,0.0,0.0,100,0.00,,,0.12,0,Wunderground v.1.15,2013-09-13 09:21:00,
2013-09-13 05:26:00,63.8,63.8,29.60,SSE,162,0.0,1.0,100,0.00,,,0.12,0,Wunderground v.1.15,2013-09-13 09:26:00,
2013-09-13 05:32:00,63.8,63.8,29.61,SSE,162,0.0,1.0,100,0.00,,,0.12,0,Wunderground v.1.15,2013-09-13 09:32:00,
2013-09-13 05:38:00,63.8,63.8,29.61,SSE,163,0.0,1.0,100,0.00,,,0.12,0,Wunderground v.1.15,2013-09-13 09:38:00,
2013-09-13 05:43:00,63.7,63.7,29.61,SSE,163,0.0,0.0,100,0.00,,,0.12,0,Wunderground v.1.15,2013-09-13 09:43:00,
2013-09-13 05:49:00,63.6,63.6,29.61,SSE,163,0.0,0.0,100,0.00,,,0.12,0,Wunderground v.1.15,2013-09-13 09:49:00,
2013-09-13 05:54:00,63.6,63.6,29.61,SSE,163,0.0,1.0,100,0.00,,,0.12,0,Wunderground v.1.15,2013-09-13 09:54:00,
2013-09-13 06:00:00,63.5,63.5,29.61,SSE,163,0.0,0.0,100,0.00,,,0.12,0,Wunderground v.1.15,2013-09-13 10:00:00,
2013-09-13 06:06:00,63.5,63.5,29.61,SSE,163,0.0,0.0,100,0.00,,,0.12,0,Wunderground v.1.15,2013-09-13 10:06:00,
2013-09-13 06:11:00,63.6,63.6,29.61,SSE,163,0.0,0.0,100,0.00,,,0.12,0,Wunderground v.1.15,2013-09-13 10:11:00,
2013-09-13 06:17:00,63.6,63.6,29.62,SSE,163,0.0,0.0,100,0.00,,,0.12,0,Wunderground v.1.15,2013-09-13 10:17:00,
2013-09-13 06:22:00,63.6,63.6,29.62,SSE,163,0.0,0.0,100,0.00,,,0.13,0,Wunderground v.1.15,2013-09-13 10:22:00,
2013-09-13 06:28:00,63.6,63.6,29.61,SSE,163,0.0,0.0,100,0.00,,,0.13,0,Wunderground v.1.15,2013-09-13 10:28:00,
2013-09-13 06:33:00,63.5,63.5,29.62,SSE,163,0.0,0.0,100,0.00,,,0.13,5,Wunderground v.1.15,2013-09-13 10:33:00,
2013-09-13 06:39:00,63.5,63.5,29.61,SSE,163,0.0,0.0,100,0.00,,,0.13,5,Wunderground v.1.15,2013-09-13 10:39:00,
2013-09-13 06:45:00,63.5,63.5,29.62,SSE,163,0.0,0.0,100,0.00,,,0.13,5,Wunderground v.1.15,2013-09-13 10:45:00,
2013-09-13 06:51:00,63.6,63.6,29.62,SSE,163,0.0,0.0,100,0.00,,,0.13,7,Wunderground v.1.15,2013-09-13 10:51:00,
2013-09-13 06:57:00,63.6,63.6,29.62,SSE,163,0.0,0.0,100,0.00,,,0.13,11,Wunderground v.1.15,2013-09-13 10:57:00,
2013-09-13 07:03:00,63.6,63.6,29.62,SSE,163,0.0,0.0,100,0.00,,,0.14,12,Wunderground v.1.15,2013-09-13 11:03:00,
2013-09-13 07:09:00,63.5,63.5,29.61,SSE,163,0.0,0.0,100,0.00,,,0.14,16,Wunderground v.1.15,2013-09-13 11:09:00,
2013-09-13 07:15:00,63.5,63.5,29.61,SSE,163,0.0,0.0,100,0.00,,,0.14,19,Wunderground v.1.15,2013-09-13 11:15:00,
2013-09-13 07:20:00,63.6,63.6,29.61,SSE,163,0.0,0.0,100,0.00,,,0.14,16,Wunderground v.1.15,2013-09-13 11:20:00,
2013-09-13 07:26:00,63.6,63.6,29.62,SSE,163,0.0,0.0,100,0.00,,,0.14,14,Wunderground v.1.15,2013-09-13 11:26:00,
2013-09-13 07:31:00,63.6,63.6,29.62,SSE,163,0.0,0.0,100,0.00,,,0.14,18,Wunderground v.1.15,2013-09-13 11:31:00,
2013-09-13 07:36:00,63.6,63.6,29.62,SSE,163,0.0,0.0,100,0.00,,,0.14,19,Wunderground v.1.15,2013-09-13 11:36:00,
2013-09-13 07:42:00,63.7,63.7,29.62,SSE,163,0.0,0.0,100,0.00,,,0.14,19,Wunderground v.1.15,2013-09-13 11:42:00,
2013-09-13 07:47:00,63.8,63.8,29.62,SSE,163,0.0,0.0,100,0.00,,,0.14,21,Wunderground v.1.15,2013-09-13 11:47:00,
2013-09-13 07:52:00,63.9,63.9,29.62,SSE,163,0.0,0.0,100,0.00,,,0.14,25,Wunderground v.1.15,2013-09-13 11:52:00,
2013-09-13 07:57:00,63.9,63.9,29.62,SSE,163,0.0,0.0,100,0.00,,,0.15,19,Wunderground v.1.15,2013-09-13 11:57:00,
2013-09-13 08:03:00,63.9,63.9,29.63,SSE,163,0.0,0.0,100,0.00,,,0.15,18,Wunderground v.1.15,2013-09-13 12:03:00,
2013-09-13 08:08:00,63.9,63.9,29.63,SSE,163,0.0,0.0,100,0.00,,,0.15,18,Wunderground v.1.15,2013-09-13 12:08:00,
2013-09-13 08:14:00,63.9,63.9,29.62,SSE,163,0.0,0.0,100,0.00,,,0.15,23,Wunderground v.1.15,2013-09-13 12:14:00,
2013-09-13 08:19:00,63.9,63.9,29.62,SSE,163,0.0,0.0,100,0.00,,,0.16,19,Wunderground v.1.15,2013-09-13 12:19:00,
2013-09-13 08:25:00,63.9,63.9,29.62,SSE,163,0.0,0.0,100,0.00,,,0.16,23,Wunderground v.1.15,2013-09-13 12:25:00,
2013-09-13 08:30:00,63.9,63.9,29.63,SSE,166,0.0,0.0,100,0.06,,,0.17,16,Wunderground v.1.15,2013-09-13 12:30:00,
2013-09-13 08:36:00,63.9,63.9,29.63,SSE,166,0.0,0.0,100,0.06,,,0.17,18,Wunderground v.1.15,2013-09-13 12:36:00,
2013-09-13 08:42:00,64.0,64.0,29.63,SSE,166,0.0,0.0,100,0.05,,,0.17,18,Wunderground v.1.15,2013-09-13 12:42:00,
2013-09-13 08:47:00,64.0,64.0,29.62,SSE,166,0.0,0.0,100,0.04,,,0.18,26,Wunderground v.1.15,2013-09-13 12:47:00,
2013-09-13 08:52:00,64.0,64.0,29.62,SSE,166,0.0,0.0,100,0.14,,,0.19,32,Wunderground v.1.15,2013-09-13 12:52:00,
2013-09-13 08:57:00,64.0,64.0,29.62,SSE,166,0.0,0.0,100,0.06,,,0.19,35,Wunderground v.1.15,2013-09-13 12:57:00,
2013-09-13 09:03:00,64.1,64.1,29.62,SSE,166,0.0,0.0,100,0.06,,,0.20,44,Wunderground v.1.15,2013-09-13 13:03:00,
2013-09-13 09:08:00,64.1,64.1,29.62,SSE,166,0.0,0.0,100,0.06,,,0.21,51,Wunderground v.1.15,2013-09-13 13:08:00,
2013-09-13 09:13:00,64.2,64.2,29.62,SSE,166,0.0,0.0,100,0.06,,,0.21,46,Wunderground v.1.15,2013-09-13 13:13:00,
2013-09-13 09:19:00,64.3,64.3,29.62,SSE,166,0.0,0.0,100,0.05,,,0.21,33,Wunderground v.1.15,2013-09-13 13:19:00,
2013-09-13 09:24:00,64.4,64.4,29.63,SSE,166,0.0,0.0,100,0.05,,,0.22,33,Wunderground v.1.15,2013-09-13 13:24:00,
2013-09-13 09:30:00,64.5,64.5,29.63,SSE,166,0.0,0.0,100,0.05,,,0.22,32,Wunderground v.1.15,2013-09-13 13:30:00,
2013-09-13 09:36:00,64.6,64.6,29.63,SSE,166,0.0,0.0,100,0.04,,,0.23,33,Wunderground v.1.15,2013-09-13 13:36:00,
2013-09-13 09:42:00,64.7,64.7,29.63,SSE,166,0.0,0.0,100,0.11,,,0.24,32,Wunderground v.1.15,2013-09-13 13:42:00,
2013-09-13 09:48:00,64.7,64.7,29.63,SSE,166,0.0,0.0,100,0.09,,,0.25,32,Wunderground v.1.15,2013-09-13 13:48:00,
2013-09-13 09:53:00,64.7,64.7,29.63,SSE,166,0.0,0.0,100,0.08,,,0.25,39,Wunderground v.1.15,2013-09-13 13:53:00,
2013-09-13 09:58:00,64.8,64.8,29.63,SSE,166,0.0,0.0,100,0.20,,,0.27,40,Wunderground v.1.15,2013-09-13 13:58:00,
2013-09-13 10:04:00,64.8,64.8,29.63,SSE,166,0.0,0.0,100,0.10,,,0.28,58,Wunderground v.1.15,2013-09-13 14:04:00,
2013-09-13 10:09:00,65.0,65.0,29.63,SSE,166,0.0,0.0,100,0.18,,,0.29,84,Wunderground v.1.15,2013-09-13 14:09:00,
2013-09-13 10:14:00,65.0,65.0,29.63,SSE,166,0.0,0.0,100,0.08,,,0.30,81,Wunderground v.1.15,2013-09-13 14:14:00,
2013-09-13 10:19:00,65.1,65.1,29.63,SSE,166,0.0,0.0,100,0.08,,,0.30,63,Wunderground v.1.15,2013-09-13 14:19:00,
2013-09-13 10:24:00,65.1,65.1,29.62,SSE,166,0.0,0.0,100,0.07,,,0.31,77,Wunderground v.1.15,2013-09-13 14:24:00,
2013-09-13 10:29:00,65.2,65.2,29.62,SSE,166,0.0,0.0,100,0.07,,,0.31,90,Wunderground v.1.15,2013-09-13 14:29:00,
2013-09-13 10:35:00,65.3,65.3,29.62,SSE,166,0.0,0.0,100,0.05,,,0.31,62,Wunderground v.1.15,2013-09-13 14:35:00,
2013-09-13 10:40:00,65.4,65.4,29.62,SSE,166,0.0,0.0,100,0.04,,,0.32,56,Wunderground v.1.15,2013-09-13 14:40:00,
2013-09-13 10:46:00,65.5,65.5,29.62,SSE,166,0.0,0.0,100,0.04,,,0.32,63,Wunderground v.1.15,2013-09-13 14:46:00,
2013-09-13 10:51:00,65.5,65.5,29.62,SSE,166,0.0,0.0,100,0.06,,,0.33,54,Wunderground v.1.15,2013-09-13 14:51:00,
2013-09-13 10:57:00,65.6,65.6,29.62,SSE,164,0.0,0.0,100,0.08,,,0.34,72,Wunderground v.1.15,2013-09-13 14:57:00,
2013-09-13 11:02:00,65.7,65.7,29.61,SSE,163,0.0,0.0,100,0.17,,,0.35,83,Wunderground v.1.15,2013-09-13 15:02:00,
2013-09-13 11:08:00,65.8,65.8,29.61,East,79,0.0,0.0,100,0.06,,,0.35,104,Wunderground v.1.15,2013-09-13 15:08:00,
2013-09-13 11:14:00,65.9,65.9,29.61,ENE,76,0.0,1.0,100,0.20,,,0.37,95,Wunderground v.1.15,2013-09-13 15:14:00,
2013-09-13 11:19:00,65.9,65.9,29.62,ENE,76,0.0,1.0,100,0.08,,,0.37,90,Wunderground v.1.15,2013-09-13 15:19:00,
2013-09-13 11:25:00,66.1,66.1,29.61,ENE,76,0.0,0.0,100,0.04,,,0.37,128,Wunderground v.1.15,2013-09-13 15:25:00,
2013-09-13 11:30:00,66.3,66.3,29.61,ENE,76,0.0,0.0,100,0.00,,,0.37,155,Wunderground v.1.15,2013-09-13 15:30:00,
2013-09-13 11:35:00,66.4,66.4,29.61,East,79,0.0,0.0,100,0.00,,,0.37,120,Wunderground v.1.15,2013-09-13 15:35:00,
2013-09-13 11:40:00,66.4,66.4,29.61,East,80,0.0,0.0,100,0.00,,,0.37,114,Wunderground v.1.15,2013-09-13 15:40:00,
2013-09-13 11:45:00,66.5,66.5,29.60,East,81,0.0,0.0,100,0.00,,,0.37,97,Wunderground v.1.15,2013-09-13 15:45:00,
2013-09-13 11:51:00,66.5,66.5,29.61,East,81,0.0,0.0,100,0.00,,,0.37,97,Wunderground v.1.15,2013-09-13 15:51:00,
2013-09-13 11:56:00,66.5,66.5,29.61,East,81,0.0,0.0,100,0.00,,,0.37,118,Wunderground v.1.15,2013-09-13 15:56:00,
2013-09-13 12:01:00,66.4,66.4,29.61,East,81,0.0,0.0,100,0.00,,,0.38,151,Wunderground v.1.15,2013-09-13 16:01:00,
2013-09-13 12:06:00,66.5,66.5,29.61,East,81,0.0,1.0,100,0.00,,,0.38,169,Wunderground v.1.15,2013-09-13 16:06:00,
2013-09-13 12:12:00,66.7,66.7,29.60,SE,139,0.0,0.0,100,0.00,,,0.38,251,Wunderground v.1.15,2013-09-13 16:12:00,
2013-09-13 12:18:00,67.0,67.0,29.60,SE,134,0.0,1.0,100,0.00,,,0.38,294,Wunderground v.1.15,2013-09-13 16:18:00,
2013-09-13 12:23:00,67.1,67.1,29.60,SSE,166,1.0,2.0,100,0.00,,,0.38,353,Wunderground v.1.15,2013-09-13 16:23:00,
2013-09-13 12:28:00,67.3,67.3,29.59,NNE,18,0.0,2.0,100,0.00,,,0.38,332,Wunderground v.1.15,2013-09-13 16:28:00,
2013-09-13 12:33:00,67.5,67.5,29.59,North,5,0.0,0.0,100,0.00,,,0.38,299,Wunderground v.1.15,2013-09-13 16:33:00,
2013-09-13 12:39:00,67.4,67.4,29.59,SSE,156,0.0,2.0,100,0.00,,,0.38,323,Wunderground v.1.15,2013-09-13 16:39:00,
2013-09-13 12:44:00,67.6,67.6,29.59,SSE,153,0.0,1.0,100,0.00,,,0.38,279,Wunderground v.1.15,2013-09-13 16:44:00,
2013-09-13 12:50:00,67.8,67.8,29.59,SE,146,0.0,1.0,100,0.00,,,0.38,220,Wunderground v.1.15,2013-09-13 16:50:00,
2013-09-13 12:55:00,67.7,67.4,29.59,SE,146,0.0,1.0,99,0.00,,,0.38,185,Wunderground v.1.15,2013-09-13 16:55:00,
2013-09-13 13:00:00,67.9,67.6,29.59,South,186,0.0,2.0,99,0.00,,,0.38,169,Wunderground v.1.15,2013-09-13 17:00:00,
2013-09-13 13:05:00,67.9,67.6,29.59,SE,142,1.0,2.0,99,0.00,,,0.38,100,Wunderground v.1.15,2013-09-13 17:05:00,
2013-09-13 13:11:00,67.9,67.6,29.59,SE,145,1.0,1.0,99,0.00,,,0.38,156,Wunderground v.1.15,2013-09-13 17:11:00,
2013-09-13 13:17:00,67.9,67.6,29.59,SE,138,0.0,1.0,99,0.00,,,0.38,204,Wunderground v.1.15,2013-09-13 17:17:00,
2013-09-13 13:23:00,68.0,67.4,29.59,SE,138,0.0,1.0,98,0.00,,,0.38,188,Wunderground v.1.15,2013-09-13 17:23:00,
2013-09-13 13:28:00,68.1,67.5,29.58,SE,137,0.0,1.0,98,0.00,,,0.38,209,Wunderground v.1.15,2013-09-13 17:28:00,
2013-09-13 13:33:00,68.3,67.7,29.58,SE,137,0.0,0.0,98,0.00,,,0.38,311,Wunderground v.1.15,2013-09-13 17:33:00,
2013-09-13 13:39:00,68.7,68.1,29.58,East,95,0.0,2.0,98,0.00,,,0.38,392,Wunderground v.1.15,2013-09-13 17:39:00,
2013-09-13 13:45:00,69.0,68.1,29.58,SE,140,0.0,1.0,97,0.00,,,0.38,250,Wunderground v.1.15,2013-09-13 17:45:00,
2013-09-13 13:51:00,69.2,68.0,29.58,South,175,0.0,0.0,96,0.00,,,0.38,197,Wunderground v.1.15,2013-09-13 17:51:00,
2013-09-13 13:57:00,69.1,67.6,29.58,ENE,61,1.0,1.0,95,0.00,,,0.38,227,Wunderground v.1.15,2013-09-13 17:57:00,
2013-09-13 14:02:00,69.2,67.4,29.58,NE,44,1.0,2.0,94,0.00,,,0.38,230,Wunderground v.1.15,2013-09-13 18:02:00,
2013-09-13 14:08:00,69.3,67.2,29.58,SE,144,0.0,2.0,93,0.00,,,0.38,334,Wunderground v.1.15,2013-09-13 18:08:00,
2013-09-13 14:13:00,69.4,67.3,29.58,East,93,1.0,3.0,93,0.00,,,0.38,357,Wunderground v.1.15,2013-09-13 18:13:00,
2013-09-13 14:18:00,69.9,67.8,29.57,NNE,25,1.0,4.0,93,0.00,,,0.38,810,Wunderground v.1.15,2013-09-13 18:18:00,
2013-09-13 14:24:00,70.4,67.6,29.57,SSW,198,1.0,2.0,91,0.00,,,0.38,264,Wunderground v.1.15,2013-09-13 18:24:00,
2013-09-13 14:30:00,70.5,67.1,29.57,NE,48,1.0,1.0,89,0.00,,,0.38,264,Wunderground v.1.15,2013-09-13 18:30:00,
2013-09-13 14:36:00,70.4,67.0,29.57,ESE,115,1.0,1.0,89,0.00,,,0.38,288,Wunderground v.1.15,2013-09-13 18:36:00,
2013-09-13 14:42:00,70.6,67.2,29.57,NE,38,0.0,0.0,89,0.00,,,0.38,227,Wunderground v.1.15,2013-09-13 18:42:00,
2013-09-13 14:47:00,70.5,66.8,29.56,NNE,30,0.0,1.0,88,0.00,,,0.38,190,Wunderground v.1.15,2013-09-13 18:47:00,
2013-09-13 14:52:00,70.3,66.6,29.56,SSE,164,0.0,0.0,88,0.00,,,0.38,223,Wunderground v.1.15,2013-09-13 18:52:00,
2013-09-13 14:58:00,70.3,66.6,29.56,SE,134,0.0,0.0,88,0.00,,,0.38,253,Wunderground v.1.15,2013-09-13 18:58:00,
2013-09-13 15:03:00,70.4,66.7,29.56,ESE,110,0.0,1.0,88,0.00,,,0.38,281,Wunderground v.1.15,2013-09-13 19:03:00,
2013-09-13 15:08:00,70.6,66.9,29.56,SSE,150,0.0,1.0,88,0.00,,,0.38,323,Wunderground v.1.15,2013-09-13 19:08:00,
2013-09-13 15:14:00,70.9,66.8,29.57,East,92,0.0,0.0,87,0.00,,,0.38,258,Wunderground v.1.15,2013-09-13 19:14:00,
2013-09-13 15:20:00,71.0,66.9,29.57,SE,144,0.0,0.0,87,0.00,,,0.38,227,Wunderground v.1.15,2013-09-13 19:20:00,
2013-09-13 15:26:00,71.1,67.0,29.57,ENE,67,0.0,1.0,87,0.00,,,0.38,193,Wunderground v.1.15,2013-09-13 19:26:00,
2013-09-13 15:31:00,71.1,67.0,29.57,East,92,0.0,0.0,87,0.00,,,0.38,176,Wunderground v.1.15,2013-09-13 19:31:00,
2013-09-13 15:37:00,71.2,67.1,29.57,East,92,0.0,0.0,87,0.00,,,0.38,146,Wunderground v.1.15,2013-09-13 19:37:00,
2013-09-13 15:42:00,71.0,66.6,29.57,North,355,0.0,1.0,86,0.00,,,0.38,151,Wunderground v.1.15,2013-09-13 19:42:00,
2013-09-13 15:47:00,70.9,66.8,29.57,NNE,27,0.0,1.0,87,0.00,,,0.38,111,Wunderground v.1.15,2013-09-13 19:47:00,
2013-09-13 15:53:00,70.6,66.5,29.57,North,11,0.0,1.0,87,0.00,,,0.38,125,Wunderground v.1.15,2013-09-13 19:53:00,
2013-09-13 15:59:00,70.4,66.7,29.56,NE,38,0.0,1.0,88,0.00,,,0.38,91,Wunderground v.1.15,2013-09-13 19:59:00,
2013-09-13 16:05:00,70.1,66.4,29.57,NW,325,0.0,1.0,88,0.00,,,0.38,56,Wunderground v.1.15,2013-09-13 20:05:00,
2013-09-13 16:11:00,69.9,66.2,29.57,NNE,15,0.0,2.0,88,0.00,,,0.38,53,Wunderground v.1.15,2013-09-13 20:11:00,
2013-09-13 16:16:00,69.7,66.3,29.57,NNW,333,0.0,3.0,89,0.00,,,0.38,77,Wunderground v.1.15,2013-09-13 20:16:00,
2013-09-13 16:21:00,69.5,66.1,29.57,NNE,17,1.0,4.0,89,0.00,,,0.38,54,Wunderground v.1.15,2013-09-13 20:21:00,
2013-09-13 16:27:00,69.2,66.1,29.57,NW,312,1.0,4.0,90,0.00,,,0.38,54,Wunderground v.1.15,2013-09-13 20:27:00,
2013-09-13 16:32:00,68.9,65.8,29.57,NW,317,1.0,1.0,90,0.00,,,0.38,35,Wunderground v.1.15,2013-09-13 20:32:00,
2013-09-13 16:37:00,68.7,66.0,29.57,WNW,286,1.0,2.0,91,0.00,,,0.38,12,Wunderground v.1.15,2013-09-13 20:37:00,
2013-09-13 16:42:00,68.2,65.8,29.57,SSW,202,0.0,3.0,92,0.00,,,0.38,9,Wunderground v.1.15,2013-09-13 20:42:00,
2013-09-13 16:48:00,67.7,65.6,29.57,SSW,212,0.0,3.0,93,1.05,,,0.45,12,Wunderground v.1.15,2013-09-13 20:48:00,
2013-09-13 16:53:00,67.4,65.6,29.58,South,174,0.0,2.0,94,1.09,,,0.53,12,Wunderground v.1.15,2013-09-13 20:53:00,
2013-09-13 16:59:00,66.9,65.1,29.58,NNE,13,0.0,2.0,94,0.44,,,0.59,9,Wunderground v.1.15,2013-09-13 20:59:00,
2013-09-13 17:04:00,66.7,64.9,29.58,NNE,13,0.0,0.0,94,0.39,,,0.64,7,Wunderground v.1.15,2013-09-13 21:04:00,
2013-09-13 17:10:00,66.5,65.0,29.58,NNE,13,0.0,0.0,95,0.17,,,0.66,9,Wunderground v.1.15,2013-09-13 21:10:00,
2013-09-13 17:16:00,66.1,64.6,29.58,West,272,0.0,5.0,95,0.21,,,0.69,18,Wunderground v.1.15,2013-09-13 21:16:00,
2013-09-13 17:21:00,65.7,64.2,29.59,South,171,1.0,1.0,95,0.23,,,0.71,14,Wunderground v.1.15,2013-09-13 21:21:00,
2013-09-13 17:27:00,65.4,64.2,29.59,North,360,1.0,3.0,96,0.28,,,0.74,11,Wunderground v.1.15,2013-09-13 21:27:00,
2013-09-13 17:32:00,65.1,63.9,29.59,WNW,284,1.0,4.0,96,0.17,,,0.75,5,Wunderground v.1.15,2013-09-13 21:32:00,
2013-09-13 17:37:00,64.9,63.7,29.59,West,273,1.0,5.0,96,0.27,,,0.77,14,Wunderground v.1.15,2013-09-13 21:37:00,
2013-09-13 17:43:00,64.7,63.5,29.59,West,271,1.0,3.0,96,0.47,,,0.84,14,Wunderground v.1.15,2013-09-13 21:43:00,
2013-09-13 17:49:00,64.5,63.6,29.59,WNW,298,1.0,3.0,97,0.27,,,0.87,19,Wunderground v.1.15,2013-09-13 21:49:00,
2013-09-13 17:54:00,64.4,63.5,29.59,NNW,347,1.0,5.0,97,0.38,,,0.90,18,Wunderground v.1.15,2013-09-13 21:54:00,
2013-09-13 18:00:00,64.2,63.3,29.59,NNW,331,2.0,8.0,97,0.20,,,0.92,19,Wunderground v.1.15,2013-09-13 22:00:00,
2013-09-13 18:05:00,64.1,63.2,29.59,NNW,338,3.0,8.0,97,0.50,,,0.94,14,Wunderground v.1.15,2013-09-13 22:05:00,
2013-09-13 18:11:00,63.8,62.9,29.59,North,355,4.0,4.0,97,0.33,,,0.98,12,Wunderground v.1.15,2013-09-13 22:11:00,
2013-09-13 18:16:00,63.6,62.7,29.59,North,355,4.0,5.0,97,0.16,,,0.99,12,Wunderground v.1.15,2013-09-13 22:16:00,
2013-09-13 18:21:00,63.6,63.0,29.59,North,355,3.0,5.0,98,0.07,,,0.99,14,Wunderground v.1.15,2013-09-13 22:21:00,
2013-09-13 18:26:00,63.6,63.0,29.59,NNW,336,2.0,5.0,98,0.05,,,0.99,14,Wunderground v.1.15,2013-09-13 22:26:00,
2013-09-13 18:31:00,63.7,63.1,29.59,North,5,2.0,3.0,98,0.00,,,0.99,11,Wunderground v.1.15,2013-09-13 22:31:00,
2013-09-13 18:36:00,63.7,63.1,29.60,NW,315,2.0,4.0,98,0.00,,,0.99,5,Wunderground v.1.15,2013-09-13 22:36:00,
2013-09-13 18:41:00,63.7,63.1,29.60,North,5,1.0,3.0,98,0.00,,,0.99,0,Wunderground v.1.15,2013-09-13 22:41:00,
2013-09-13 18:46:00,63.7,63.1,29.60,NNW,333,1.0,3.0,98,0.00,,,1.00,0,Wunderground v.1.15,2013-09-13 22:46:00,
2013-09-13 18:51:00,63.7,63.1,29.60,NNE,14,2.0,5.0,98,0.00,,,1.00,0,Wunderground v.1.15,2013-09-13 22:51:00,
2013-09-13 18:57:00,63.6,63.0,29.60,NNW,346,3.0,5.0,98,0.05,,,1.01,0,Wunderground v.1.15,2013-09-13 22:57:00,
2013-09-13 19:02:00,63.5,62.9,29.61,NNW,344,3.0,3.0,98,0.05,,,1.01,0,Wunderground v.1.15,2013-09-13 23:02:00,
2013-09-13 19:08:00,63.4,62.8,29.61,NW,315,2.0,3.0,98,0.05,,,1.02,0,Wunderground v.1.15,2013-09-13 23:08:00,
2013-09-13 19:13:00,63.4,62.8,29.61,North,360,1.0,2.0,98,0.05,,,1.02,0,Wunderground v.1.15,2013-09-13 23:13:00,
2013-09-13 19:18:00,63.4,62.8,29.61,North,355,1.0,2.0,98,0.05,,,1.02,0,Wunderground v.1.15,2013-09-13 23:18:00,
2013-09-13 19:23:00,63.4,62.8,29.62,NW,319,1.0,3.0,98,0.04,,,1.02,0,Wunderground v.1.15,2013-09-13 23:23:00,
2013-09-13 19:29:00,63.4,62.8,29.63,NW,320,0.0,3.0,98,0.04,,,1.03,0,Wunderground v.1.15,2013-09-13 23:29:00,
2013-09-13 19:34:00,63.4,62.8,29.63,NW,320,0.0,0.0,98,0.04,,,1.03,0,Wunderground v.1.15,2013-09-13 23:34:00,
2013-09-13 19:39:00,63.4,62.8,29.63,NW,320,0.0,0.0,98,0.04,,,1.03,0,Wunderground v.1.15,2013-09-13 23:39:00,
2013-09-13 19:45:00,63.4,63.1,29.64,West,273,0.0,3.0,99,0.00,,,1.04,0,Wunderground v.1.15,2013-09-13 23:45:00,
2013-09-13 19:51:00,63.5,63.2,29.64,West,273,0.0,0.0,99,0.00,,,1.04,0,Wunderground v.1.15,2013-09-13 23:51:00,
2013-09-13 19:56:00,63.5,63.2,29.64,West,277,0.0,0.0,99,0.08,,,1.05,0,Wunderground v.1.15,2013-09-13 23:56:00,
2013-09-13 20:01:00,63.4,63.1,29.65,WNW,303,1.0,6.0,99,0.22,,,1.07,0,Wunderground v.1.15,2013-09-14 00:01:00,
2013-09-13 20:07:00,62.9,62.3,29.66,West,268,3.0,6.0,98,0.16,,,1.09,0,Wunderground v.1.15,2013-09-14 00:07:00,
2013-09-13 20:13:00,62.5,61.9,29.66,West,265,3.0,3.0,98,0.54,,,1.12,0,Wunderground v.1.15,2013-09-14 00:13:00,
2013-09-13 20:18:00,62.3,62.0,29.66,WNW,295,2.0,7.0,99,0.55,,,1.16,0,Wunderground v.1.15,2013-09-14 00:18:00,
2013-09-13 20:24:00,62.2,61.9,29.66,WSW,246,2.0,5.0,99,0.34,,,1.20,0,Wunderground v.1.15,2013-09-14 00:24:00,
2013-09-13 20:30:00,62.1,61.5,29.66,East,82,2.0,2.0,98,0.21,,,1.22,0,Wunderground v.1.15,2013-09-14 00:30:00,
2013-09-13 20:36:00,61.8,61.2,29.67,North,11,3.0,9.0,98,0.14,,,1.24,0,Wunderground v.1.15,2013-09-14 00:36:00,
2013-09-13 20:42:00,61.5,60.9,29.67,NNW,338,4.0,4.0,98,0.10,,,1.25,0,Wunderground v.1.15,2013-09-14 00:42:00,
2013-09-13 20:47:00,61.4,60.8,29.67,ENE,57,3.0,6.0,98,0.09,,,1.25,0,Wunderground v.1.15,2013-09-14 00:47:00,
2013-09-13 20:52:00,61.3,60.7,29.67,NNW,331,4.0,4.0,98,0.05,,,1.25,0,Wunderground v.1.15,2013-09-14 00:52:00,
2013-09-13 20:57:00,61.1,60.5,29.66,NNW,331,4.0,10.0,98,0.04,,,1.26,0,Wunderground v.1.15,2013-09-14 00:57:00,
2013-09-13 21:03:00,61.1,60.5,29.65,NNW,344,5.0,9.0,98,0.04,,,1.26,0,Wunderground v.1.15,2013-09-14 01:03:00,
2013-09-13 21:09:00,61.0,60.4,29.64,North,5,6.0,10.0,98,0.11,,,1.27,0,Wunderground v.1.15,2013-09-14 01:09:00,
2013-09-13 21:15:00,61.0,60.4,29.64,North,11,5.0,10.0,98,0.15,,,1.29,0,Wunderground v.1.15,2013-09-14 01:15:00,
2013-09-13 21:20:00,61.0,60.7,29.64,NNW,327,5.0,5.0,99,0.08,,,1.29,0,Wunderground v.1.15,2013-09-14 01:20:00,
2013-09-13 21:26:00,60.9,60.3,29.64,NNW,332,6.0,12.0,98,0.06,,,1.30,0,Wunderground v.1.15,2013-09-14 01:26:00,
2013-09-13 21:32:00,60.7,60.1,29.64,North,355,7.0,15.0,98,0.06,,,1.30,0,Wunderground v.1.15,2013-09-14 01:32:00,
2013-09-13 21:37:00,60.5,59.9,29.64,NW,321,7.0,15.0,98,0.04,,,1.30,0,Wunderground v.1.15,2013-09-14 01:37:00,
2013-09-13 21:43:00,60.4,59.8,29.64,NNW,334,6.0,7.0,98,0.00,,,1.30,0,Wunderground v.1.15,2013-09-14 01:43:00,
2013-09-13 21:48:00,60.4,59.8,29.65,NNW,347,5.0,7.0,98,0.00,,,1.30,0,Wunderground v.1.15,2013-09-14 01:48:00,
2013-09-13 21:53:00,60.3,59.7,29.65,NNW,332,4.0,5.0,98,0.00,,,1.30,0,Wunderground v.1.15,2013-09-14 01:53:00,
2013-09-13 21:59:00,60.3,59.7,29.65,North,350,3.0,5.0,98,0.00,,,1.30,0,Wunderground v.1.15,2013-09-14 01:59:00,
2013-09-13 22:04:00,60.2,59.6,29.66,NW,314,2.0,3.0,98,0.00,,,1.30,0,Wunderground v.1.15,2013-09-14 02:04:00,
2013-09-13 22:09:00,60.2,59.6,29.66,NNW,344,1.0,3.0,98,0.00,,,1.30,0,Wunderground v.1.15,2013-09-14 02:09:00,
2013-09-13 22:14:00,60.2,59.6,29.66,NW,317,0.0,1.0,98,0.00,,,1.30,0,Wunderground v.1.15,2013-09-14 02:14:00,
2013-09-13 22:20:00,60.2,59.6,29.67,NW,317,0.0,0.0,98,0.00,,,1.30,0,Wunderground v.1.15,2013-09-14 02:20:00,
2013-09-13 22:26:00,60.2,59.6,29.67,NNE,15,0.0,1.0,98,0.00,,,1.30,0,Wunderground v.1.15,2013-09-14 02:26:00,
2013-09-13 22:31:00,60.3,59.7,29.67,NW,317,0.0,2.0,98,0.00,,,1.30,0,Wunderground v.1.15,2013-09-14 02:31:00,
2013-09-13 22:36:00,60.3,59.7,29.67,NW,325,0.0,2.0,98,0.00,,,1.30,0,Wunderground v.1.15,2013-09-14 02:36:00,
2013-09-13 22:42:00,60.3,59.7,29.67,NNW,345,0.0,1.0,98,0.00,,,1.30,0,Wunderground v.1.15,2013-09-14 02:42:00,
2013-09-13 22:48:00,60.4,59.8,29.67,NNW,331,0.0,1.0,98,0.00,,,1.30,0,Wunderground v.1.15,2013-09-14 02:48:00,
2013-09-13 22:54:00,60.4,59.8,29.67,NNE,19,1.0,3.0,98,0.00,,,1.30,0,Wunderground v.1.15,2013-09-14 02:54:00,
2013-09-13 23:00:00,60.5,59.9,29.67,North,5,1.0,2.0,98,0.00,,,1.30,0,Wunderground v.1.15,2013-09-14 03:00:00,
2013-09-13 23:05:00,60.4,59.8,29.68,NNW,342,1.0,2.0,98,0.00,,,1.30,0,Wunderground v.1.15,2013-09-14 03:05:00,
2013-09-13 23:10:00,60.4,59.8,29.68,North,355,1.0,1.0,98,0.00,,,1.30,0,Wunderground v.1.15,2013-09-14 03:10:00,
2013-09-13 23:16:00,60.4,59.8,29.68,NW,318,0.0,1.0,98,0.00,,,1.30,0,Wunderground v.1.15,2013-09-14 03:16:00,
2013-09-13 23:22:00,60.4,59.8,29.68,North,350,1.0,1.0,98,0.00,,,1.30,0,Wunderground v.1.15,2013-09-14 03:22:00,
2013-09-13 23:27:00,60.4,59.8,29.68,WNW,290,1.0,3.0,98,0.00,,,1.30,0,Wunderground v.1.15,2013-09-14 03:27:00,
2013-09-13 23:33:00,60.4,60.1,29.68,WNW,292,0.0,1.0,99,0.00,,,1.30,0,Wunderground v.1.15,2013-09-14 03:33:00,
2013-09-13 23:38:00,60.4,60.1,29.68,NNW,342,0.0,1.0,99,0.00,,,1.30,0,Wunderground v.1.15,2013-09-14 03:38:00,
2013-09-13 23:44:00,60.3,59.7,29.68,NNW,342,1.0,2.0,98,0.00,,,1.30,0,Wunderground v.1.15,2013-09-14 03:44:00,
2013-09-13 23:50:00,60.2,59.6,29.68,NE,42,1.0,1.0,98,0.00,,,1.30,0,Wunderground v.1.15,2013-09-14 03:50:00,
2013-09-13 23:55:00,60.2,59.6,29.68,NE,42,0.0,1.0,98,0.00,,,1.30,0,Wunderground v.1.15,2013-09-14 03:55:00,